createdAt,value
2022-08-03T00:00:27.907Z,4.60
2022-08-03T00:02:54.932Z,4.65
2022-08-03T00:05:21.966Z,3.17
2022-08-03T00:07:49.557Z,2.97
2022-08-03T00:10:17.380Z,2.80
2022-08-03T00:12:44.344Z,6.03
2022-08-03T00:15:16.330Z,2.70
2022-08-03T00:17:52.960Z,3.70
2022-08-03T00:20:24.388Z,4.07
2022-08-03T00:22:51.720Z,3.83
2022-08-03T00:25:19.414Z,11.90
2022-08-03T00:27:46.360Z,3.20
2022-08-03T00:30:15.422Z,2.62
2022-08-03T00:32:45.118Z,4.45
2022-08-03T00:35:28.041Z,3.25
2022-08-03T00:37:59.882Z,3.58
2022-08-03T00:40:27.027Z,2.97
2022-08-03T00:42:56.053Z,3.05
2022-08-03T00:45:30.526Z,2.83
2022-08-03T00:47:58.134Z,2.90
2022-08-03T00:50:27.810Z,2.97
2022-08-03T00:52:57.090Z,4.90
2022-08-03T00:55:24.848Z,4.28
2022-08-03T00:57:52.195Z,3.05
2022-08-03T01:00:22.649Z,2.87
2022-08-03T01:02:50.002Z,2.33
2022-08-03T01:05:17.052Z,4.60
2022-08-03T01:07:58.938Z,3.83
2022-08-03T01:10:40.977Z,4.90
2022-08-03T01:14:01.509Z,3.22
2022-08-03T01:16:38.854Z,2.65
2022-08-03T01:19:45.002Z,3.57
2022-08-03T01:22:36.576Z,3.65
2022-08-03T01:25:07.053Z,3.65
2022-08-03T01:27:39.781Z,2.72
2022-08-03T01:30:08.906Z,4.18
2022-08-03T01:32:58.208Z,3.87
2022-08-03T01:35:42.579Z,4.43
2022-08-03T01:38:16.102Z,3.75
2022-08-03T01:40:45.071Z,4.45
2022-08-03T01:44:27.891Z,4.30
2022-08-03T01:46:04.630Z,4.40
2022-08-03T01:48:32.544Z,3.85
2022-08-03T01:51:00.192Z,4.47
2022-08-03T01:53:28.561Z,3.97
2022-08-03T01:55:57.205Z,4.28
2022-08-03T01:58:25.097Z,3.92
2022-08-03T02:00:53.002Z,3.78
2022-08-03T02:03:20.931Z,5.28
2022-08-03T02:05:48.452Z,4.18
2022-08-03T02:08:16.568Z,3.67
2022-08-03T02:10:43.778Z,4.93
2022-08-03T02:13:11.114Z,3.30
2022-08-03T02:15:38.758Z,4.07
2022-08-03T02:18:06.635Z,5.75
2022-08-03T02:20:36.491Z,3.22
2022-08-03T02:23:04.051Z,3.37
2022-08-03T02:25:30.889Z,4.03
2022-08-03T02:28:04.931Z,5.37
2022-08-03T02:30:39.273Z,9.05
2022-08-03T02:33:13.029Z,6.35
2022-08-03T02:35:40.369Z,4.70
2022-08-03T02:38:08.618Z,6.10
2022-08-03T02:40:36.810Z,5.78
2022-08-03T02:43:08.483Z,5.62
2022-08-03T02:45:41.535Z,4.93
2022-08-03T02:48:12.268Z,4.43
2022-08-03T02:50:40.074Z,5.50
2022-08-03T02:53:07.719Z,5.10
2022-08-03T02:55:36.050Z,5.20
2022-08-03T02:58:12.311Z,4.68
2022-08-03T03:00:39.794Z,6.35
2022-08-03T03:03:07.015Z,5.18
2022-08-03T03:05:52.355Z,4.90
2022-08-03T03:08:27.484Z,5.22
2022-08-03T03:11:00.563Z,5.97
2022-08-03T03:13:29.080Z,5.22
2022-08-03T03:15:57.820Z,7.85
2022-08-03T03:18:25.620Z,5.53
2022-08-03T03:20:53.567Z,7.15
2022-08-03T03:23:22.250Z,6.32
2022-08-03T03:25:49.462Z,6.87
2022-08-03T03:28:16.541Z,5.47
2022-08-03T03:30:43.529Z,5.47
2022-08-03T03:33:10.479Z,6.15
2022-08-03T03:35:39.266Z,6.37
2022-08-03T03:38:07.291Z,5.60
2022-08-03T03:40:36.293Z,8.18
2022-08-03T03:43:03.890Z,5.90
2022-08-03T03:45:31.795Z,5.12
2022-08-03T03:48:00.703Z,6.80
2022-08-03T03:50:28.506Z,6.78
2022-08-03T03:52:55.448Z,8.13
2022-08-03T03:55:23.042Z,6.53
2022-08-03T03:57:50.088Z,6.20
2022-08-03T04:00:18.355Z,7.90
2022-08-03T04:02:46.339Z,6.15
2022-08-03T04:05:32.103Z,4.93
2022-08-03T04:08:25.539Z,6.72
2022-08-03T04:11:18.505Z,4.95
2022-08-03T04:14:01.873Z,4.95
2022-08-03T04:16:31.645Z,6.95
2022-08-03T04:19:04.027Z,6.55
2022-08-03T04:21:32.305Z,6.72
2022-08-03T04:24:02.340Z,4.32
2022-08-03T04:26:33.402Z,6.82
2022-08-03T04:29:01.016Z,5.95
2022-08-03T04:31:28.805Z,5.30
2022-08-03T04:33:55.926Z,6.37
2022-08-03T04:36:25.729Z,4.60
2022-08-03T04:39:05.590Z,8.30
2022-08-03T04:41:32.857Z,5.70
2022-08-03T04:44:20.149Z,5.87
2022-08-03T04:46:52.755Z,6.03
2022-08-03T04:49:21.164Z,5.43
2022-08-03T04:51:49.795Z,7.22
2022-08-03T04:54:16.879Z,4.05
2022-08-03T04:56:44.250Z,5.72
2022-08-03T04:59:11.533Z,5.95
2022-08-03T05:01:40.129Z,6.30
2022-08-03T05:04:08.378Z,7.82
2022-08-03T05:06:36.361Z,4.87
2022-08-03T05:09:08.642Z,4.37
2022-08-03T05:11:35.583Z,3.87
2022-08-03T05:14:02.560Z,5.95
2022-08-03T05:16:29.488Z,5.05
2022-08-03T05:18:56.399Z,3.90
2022-08-03T05:21:23.330Z,6.07
2022-08-03T05:23:50.240Z,4.65
2022-08-03T05:26:17.330Z,6.15
2022-08-03T05:28:50.780Z,4.80
2022-08-03T05:31:18.054Z,4.78
2022-08-03T05:33:45.011Z,3.83
2022-08-03T05:36:12.806Z,5.95
2022-08-03T05:38:39.801Z,4.70
2022-08-03T05:41:21.125Z,7.20
2022-08-03T05:43:50.447Z,5.00
2022-08-03T05:46:18.279Z,4.40
2022-08-03T05:48:45.205Z,5.90
2022-08-03T05:51:12.302Z,6.22
2022-08-03T05:53:41.280Z,5.20
2022-08-03T05:56:13.698Z,8.57
2022-08-03T05:58:45.448Z,7.95
2022-08-03T06:01:12.497Z,6.12
2022-08-03T06:03:39.719Z,6.45
2022-08-03T06:06:06.733Z,6.97
2022-08-03T06:08:34.698Z,6.18
2022-08-03T06:11:01.700Z,5.87
2022-08-03T06:13:28.621Z,6.80
2022-08-03T06:15:55.548Z,7.53
2022-08-03T06:18:23.457Z,6.30
2022-08-03T06:20:51.088Z,7.05
2022-08-03T06:23:19.334Z,7.55
2022-08-03T06:25:47.109Z,5.90
2022-08-03T06:28:42.562Z,8.73
2022-08-03T06:31:03.046Z,6.28
2022-08-03T06:33:48.570Z,6.68
2022-08-03T06:36:17.038Z,6.50
2022-08-03T06:38:43.933Z,8.93
2022-08-03T06:41:10.897Z,7.78
2022-08-03T06:44:02.564Z,7.45
2022-08-03T06:46:24.893Z,9.60
2022-08-03T06:48:53.370Z,8.90
2022-08-03T06:51:20.318Z,7.75
2022-08-03T06:53:47.301Z,11.60
2022-08-03T06:56:24.747Z,10.13
2022-08-03T06:58:52.180Z,7.53
2022-08-03T07:01:19.345Z,9.88
2022-08-03T07:03:52.377Z,8.25
2022-08-03T07:06:19.566Z,8.73
2022-08-03T07:08:51.544Z,11.25
2022-08-03T07:11:19.909Z,11.70
2022-08-03T07:13:46.940Z,11.18
2022-08-03T07:16:13.902Z,10.02
2022-08-03T07:18:41.170Z,11.55
2022-08-03T07:21:09.519Z,12.40
2022-08-03T07:23:36.470Z,10.80
2022-08-03T07:26:03.554Z,12.60
2022-08-03T07:28:30.534Z,11.40
2022-08-03T07:30:59.613Z,12.27
2022-08-03T07:33:26.577Z,13.32
2022-08-03T07:35:53.530Z,10.48
2022-08-03T07:38:21.175Z,11.30
2022-08-03T07:40:48.471Z,9.68
2022-08-03T07:43:17.863Z,11.77
2022-08-03T07:45:44.766Z,10.57
2022-08-03T07:48:12.528Z,12.70
2022-08-03T07:50:39.901Z,10.70
2022-08-03T07:53:06.821Z,12.15
2022-08-03T07:55:33.954Z,11.48
2022-08-03T07:58:20.619Z,12.07
2022-08-03T08:00:53.253Z,9.40
2022-08-03T08:03:22.028Z,12.37
2022-08-03T08:05:49.510Z,9.02
2022-08-03T08:08:16.422Z,9.23
2022-08-03T08:10:57.974Z,9.23
2022-08-03T08:13:25.939Z,11.02
2022-08-03T08:15:52.867Z,9.40
2022-08-03T08:18:19.786Z,9.07
2022-08-03T08:20:46.748Z,11.02
2022-08-03T08:23:37.871Z,11.80
2022-08-03T08:26:00.963Z,7.50
2022-08-03T08:28:32.698Z,8.68
2022-08-03T08:31:03.434Z,8.55
2022-08-03T08:33:42.486Z,8.20
2022-08-03T08:36:15.709Z,8.35
2022-08-03T08:38:44.763Z,9.63
2022-08-03T08:41:13.634Z,9.75
2022-08-03T08:43:43.247Z,8.27
2022-08-03T08:46:23.298Z,8.70
2022-08-03T08:48:52.158Z,7.60
2022-08-03T08:51:22.893Z,8.63
2022-08-03T08:53:54.019Z,9.82
2022-08-03T08:56:26.063Z,9.48
2022-08-03T08:58:58.721Z,7.28
2022-08-03T09:01:25.964Z,7.40
2022-08-03T09:03:54.346Z,11.63
2022-08-03T09:06:22.194Z,8.10
2022-08-03T09:08:49.246Z,10.23
2022-08-03T09:11:16.157Z,6.95
2022-08-03T09:13:43.215Z,9.07
2022-08-03T09:16:15.978Z,8.63
2022-08-03T09:18:49.139Z,6.57
2022-08-03T09:21:33.528Z,8.13
2022-08-03T09:24:05.341Z,7.47
2022-08-03T09:26:35.727Z,9.23
2022-08-03T09:29:10.879Z,8.73
2022-08-03T09:31:43.579Z,7.90
2022-08-03T09:34:13.524Z,7.70
2022-08-03T09:36:41.896Z,10.75
2022-08-03T09:39:11.869Z,7.05
2022-08-03T09:41:43.497Z,7.60
2022-08-03T09:44:24.314Z,7.40
2022-08-03T09:46:55.857Z,8.38
2022-08-03T09:49:23.161Z,7.55
2022-08-03T09:52:31.737Z,7.78
2022-08-03T09:54:37.434Z,8.88
2022-08-03T09:57:04.624Z,6.32
2022-08-03T09:59:33.331Z,6.80
2022-08-03T10:02:00.735Z,7.43
2022-08-03T10:04:28.176Z,7.75
2022-08-03T10:07:09.855Z,7.05
2022-08-03T10:09:37.797Z,7.22
2022-08-03T10:12:14.871Z,10.60
2022-08-03T10:14:45.552Z,10.75
2022-08-03T10:17:12.646Z,8.10
2022-08-03T10:19:41.257Z,9.23
2022-08-03T10:22:13.795Z,8.20
2022-08-03T10:24:48.873Z,9.43
2022-08-03T10:27:16.289Z,8.90
2022-08-03T10:29:46.545Z,9.68
2022-08-03T10:32:19.288Z,7.60
2022-08-03T10:34:47.318Z,6.87
2022-08-03T10:37:16.489Z,7.75
2022-08-03T10:39:53.646Z,7.78
2022-08-03T10:42:45.566Z,7.40
2022-08-03T10:45:24.217Z,8.40
2022-08-03T10:47:52.556Z,9.18
2022-08-03T10:50:19.830Z,7.80
2022-08-03T10:53:03.912Z,8.27
2022-08-03T10:55:55.079Z,7.05
2022-08-03T10:58:37.405Z,9.05
2022-08-03T11:02:00.242Z,7.22
2022-08-03T11:04:30.140Z,7.95
2022-08-03T11:07:23.527Z,7.25
2022-08-03T11:09:54.199Z,7.43
2022-08-03T11:12:27.875Z,7.35
2022-08-03T11:15:00.459Z,6.18
2022-08-03T11:17:27.447Z,6.37
2022-08-03T11:19:56.822Z,7.45
2022-08-03T11:22:25.255Z,7.72
2022-08-03T11:24:54.414Z,7.12
2022-08-03T11:27:24.287Z,6.47
2022-08-03T11:30:10.567Z,6.40
2022-08-03T11:32:46.496Z,7.47
2022-08-03T11:35:33.914Z,6.22
2022-08-03T11:38:03.015Z,7.72
2022-08-03T11:40:46.997Z,8.18
2022-08-03T11:43:30.428Z,7.18
2022-08-03T11:46:13.855Z,6.47
2022-08-03T11:48:59.427Z,9.73
2022-08-03T11:51:28.540Z,7.40
2022-08-03T11:54:11.918Z,7.68
2022-08-03T11:56:49.941Z,6.87
2022-08-03T11:59:22.264Z,8.82
2022-08-03T12:01:50.326Z,7.15
2022-08-03T12:04:17.318Z,7.20
2022-08-03T12:06:59.498Z,8.60
2022-08-03T12:09:26.464Z,8.07
2022-08-03T12:11:59.574Z,6.80
2022-08-03T12:14:48.889Z,5.80
2022-08-03T12:17:15.362Z,7.18
2022-08-03T12:19:43.443Z,6.03
2022-08-03T12:22:10.372Z,5.40
2022-08-03T12:24:46.797Z,5.95
2022-08-03T12:27:23.764Z,6.97
2022-08-03T12:29:58.638Z,5.37
2022-08-03T12:32:27.106Z,7.18
2022-08-03T12:34:55.607Z,4.65
2022-08-03T12:37:35.925Z,5.28
2022-08-03T12:40:10.550Z,4.70
2022-08-03T12:42:39.834Z,6.40
2022-08-03T12:45:20.420Z,5.75
2022-08-03T12:48:00.652Z,5.55
2022-08-03T12:50:32.596Z,5.07
2022-08-03T12:53:01.764Z,5.62
2022-08-03T12:55:57.217Z,5.62
2022-08-03T12:58:35.637Z,4.68
2022-08-03T13:01:09.677Z,4.53
2022-08-03T13:03:55.543Z,4.97
2022-08-03T13:06:27.449Z,3.42
2022-08-03T13:09:07.807Z,7.97
2022-08-03T13:11:55.448Z,4.18
2022-08-03T13:14:23.661Z,3.55
2022-08-03T13:16:51.131Z,5.28
2022-08-03T13:19:18.115Z,3.87
2022-08-03T13:21:53.477Z,5.80
2022-08-03T13:24:31.622Z,4.53
2022-08-03T13:26:59.667Z,4.60
2022-08-03T13:29:26.652Z,4.62
2022-08-03T13:31:53.599Z,4.95
2022-08-03T13:34:23.538Z,4.50
2022-08-03T13:37:10.262Z,3.70
2022-08-03T13:39:57.339Z,4.43
2022-08-03T13:42:25.423Z,5.50
2022-08-03T13:44:52.530Z,4.78
2022-08-03T13:47:20.457Z,6.55
2022-08-03T13:49:54.239Z,4.60
2022-08-03T13:52:26.639Z,4.22
2022-08-03T13:55:01.153Z,4.35
2022-08-03T13:58:03.079Z,5.32
2022-08-03T14:00:28.072Z,4.55
2022-08-03T14:03:06.507Z,5.20
2022-08-03T14:05:38.421Z,5.65
2022-08-03T14:08:06.996Z,3.70
2022-08-03T14:10:39.182Z,6.15
2022-08-03T14:13:06.575Z,5.50
2022-08-03T14:15:37.808Z,6.00
2022-08-03T14:18:13.026Z,4.68
2022-08-03T14:20:50.268Z,5.30
2022-08-03T14:23:21.372Z,4.28
2022-08-03T14:25:50.325Z,4.68
2022-08-03T14:28:21.498Z,4.62
2022-08-03T14:30:48.851Z,4.47
2022-08-03T14:33:16.217Z,4.43
2022-08-03T14:35:43.460Z,4.32
2022-08-03T14:38:10.396Z,4.65
2022-08-03T14:40:37.377Z,6.07
2022-08-03T14:43:04.329Z,5.60
2022-08-03T14:45:31.349Z,3.80
2022-08-03T14:50:30.615Z,5.43
2022-08-03T14:50:51.470Z,6.78
2022-08-03T14:53:19.427Z,4.60
2022-08-03T14:55:49.627Z,4.75
2022-08-03T14:58:21.156Z,5.15
2022-08-03T15:00:49.411Z,5.07
2022-08-03T15:03:17.390Z,5.10
2022-08-03T15:05:45.110Z,7.90
2022-08-03T15:08:12.048Z,6.70
2022-08-03T15:10:40.304Z,6.95
2022-08-03T15:13:11.041Z,4.35
2022-08-03T15:15:37.951Z,4.32
2022-08-03T15:18:05.132Z,8.07
2022-08-03T15:20:43.381Z,6.00
2022-08-03T15:23:11.164Z,6.82
2022-08-03T15:26:28.085Z,5.25
2022-08-03T15:28:25.007Z,5.32
2022-08-03T15:30:55.296Z,6.62
2022-08-03T15:33:22.278Z,5.30
2022-08-03T15:35:50.046Z,5.53
2022-08-03T15:38:17.559Z,5.30
2022-08-03T15:40:44.819Z,7.75
2022-08-03T15:43:11.788Z,5.82
2022-08-03T15:45:38.791Z,6.32
2022-08-03T15:48:06.761Z,4.72
2022-08-03T15:50:33.743Z,4.62
2022-08-03T15:53:00.681Z,4.65
2022-08-03T15:55:27.923Z,5.80
2022-08-03T15:59:03.928Z,5.90
2022-08-03T16:00:43.338Z,5.75
2022-08-03T16:03:10.669Z,5.15
2022-08-03T16:05:37.592Z,6.57
2022-08-03T16:08:07.929Z,5.55
2022-08-03T16:10:37.279Z,5.80
2022-08-03T16:13:04.226Z,5.82
2022-08-03T16:15:31.214Z,7.32
2022-08-03T16:17:58.239Z,7.15
2022-08-03T16:20:31.307Z,6.00
2022-08-03T16:23:09.117Z,6.00
2022-08-03T16:25:40.010Z,5.75
2022-08-03T16:28:13.150Z,5.53
2022-08-03T16:30:42.581Z,8.40
2022-08-03T16:33:09.754Z,7.28
2022-08-03T16:35:36.959Z,5.50
2022-08-03T16:38:09.236Z,7.53
2022-08-03T16:40:36.882Z,7.37
2022-08-03T16:43:18.968Z,5.55
2022-08-03T16:45:47.110Z,5.72
2022-08-03T16:48:15.404Z,5.53
2022-08-03T16:50:42.439Z,9.77
2022-08-03T16:53:10.139Z,5.55
2022-08-03T16:55:48.646Z,9.27
2022-08-03T16:58:41.646Z,6.10
2022-08-03T17:01:22.413Z,6.22
2022-08-03T17:04:03.556Z,6.82
2022-08-03T17:06:35.476Z,6.03
2022-08-03T17:09:09.238Z,5.20
2022-08-03T17:11:43.918Z,5.35
2022-08-03T17:14:14.965Z,5.90
2022-08-03T17:16:51.954Z,5.07
2022-08-03T17:19:23.270Z,5.50
2022-08-03T17:21:58.205Z,4.28
2022-08-03T17:24:33.157Z,4.47
2022-08-03T17:27:02.943Z,5.05
2022-08-03T17:29:30.458Z,4.75
2022-08-03T17:31:57.666Z,6.18
2022-08-03T17:34:26.544Z,3.87
2022-08-03T17:37:26.918Z,4.72
2022-08-03T17:39:58.324Z,4.37
2022-08-03T17:42:29.989Z,3.85
2022-08-03T17:45:02.057Z,5.78
2022-08-03T17:47:42.229Z,6.00
2022-08-03T17:50:24.390Z,5.50
2022-08-03T17:53:07.496Z,4.15
2022-08-03T17:55:57.094Z,5.12
2022-08-03T17:58:55.188Z,7.47
2022-08-03T18:02:19.919Z,5.68
2022-08-03T18:05:16.482Z,4.05
2022-08-03T18:07:59.166Z,5.97
2022-08-03T18:10:34.256Z,5.87
2022-08-03T18:13:10.404Z,4.72
2022-08-03T18:15:47.404Z,4.93
2022-08-03T18:18:16.621Z,6.20
2022-08-03T18:20:57.111Z,6.18
2022-08-03T18:23:36.875Z,6.07
2022-08-03T18:26:11.864Z,4.45
2022-08-03T18:28:39.599Z,6.05
2022-08-03T18:31:10.060Z,7.60
2022-08-03T18:34:18.153Z,7.53
2022-08-03T18:36:29.954Z,5.97
2022-08-03T18:39:03.151Z,8.90
2022-08-03T18:41:34.690Z,4.82
2022-08-03T18:44:08.944Z,5.90
2022-08-03T18:47:15.974Z,6.20
2022-08-03T18:49:52.765Z,5.12
2022-08-03T18:52:44.050Z,4.97
2022-08-03T18:55:20.551Z,5.12
2022-08-03T18:58:15.718Z,6.28
2022-08-03T19:01:58.494Z,5.55
2022-08-03T19:04:41.157Z,4.40
2022-08-03T19:07:15.486Z,8.15
2022-08-03T19:09:49.083Z,4.82
2022-08-03T19:12:37.842Z,4.55
2022-08-03T19:15:12.580Z,7.18
2022-08-03T19:17:42.219Z,6.75
2022-08-03T19:20:28.442Z,4.90
2022-08-03T19:22:57.370Z,6.90
2022-08-03T19:25:34.551Z,6.05
2022-08-03T19:28:06.147Z,5.05
2022-08-03T19:30:38.732Z,5.05
2022-08-03T19:33:09.330Z,6.15
2022-08-03T19:35:51.635Z,4.03
2022-08-03T19:38:27.397Z,8.80
2022-08-03T19:41:03.057Z,4.70
2022-08-03T19:43:52.960Z,5.65
2022-08-03T19:46:22.157Z,6.22
2022-08-03T19:49:00.694Z,7.20
2022-08-03T19:52:01.924Z,9.52
2022-08-03T19:54:29.647Z,8.50
2022-08-03T19:57:01.927Z,7.32
2022-08-03T19:59:29.963Z,8.80
2022-08-03T20:01:57.827Z,6.72
2022-08-03T20:04:24.855Z,7.80
2022-08-03T20:06:52.401Z,5.45
2022-08-03T20:09:20.986Z,6.90
2022-08-03T20:11:48.342Z,5.20
2022-08-03T20:14:20.671Z,6.62
2022-08-03T20:16:53.848Z,6.50
2022-08-03T20:19:21.033Z,5.15
2022-08-03T20:21:48.911Z,7.72
2022-08-03T20:24:31.915Z,3.60
2022-08-03T20:27:01.565Z,5.68
2022-08-03T20:30:05.022Z,6.20
2022-08-03T20:32:28.628Z,5.90
2022-08-03T20:34:56.524Z,11.20
2022-08-03T20:37:25.597Z,4.65
2022-08-03T20:39:54.540Z,6.62
2022-08-03T20:42:22.424Z,6.35
2022-08-03T20:45:04.276Z,5.43
2022-08-03T20:47:33.977Z,4.97
2022-08-03T20:50:04.260Z,8.35
2022-08-03T20:52:35.205Z,5.85
2022-08-03T20:55:17.306Z,9.45
2022-08-03T20:57:49.227Z,10.80
2022-08-03T21:00:22.022Z,6.55
2022-08-03T21:02:49.398Z,11.57
2022-08-03T21:05:16.393Z,9.45
2022-08-03T21:08:05.392Z,9.20
2022-08-03T21:10:37.812Z,6.80
2022-08-03T21:13:18.587Z,5.55
2022-08-03T21:16:02.980Z,6.28
2022-08-03T21:18:44.059Z,6.53
2022-08-03T21:21:14.748Z,9.85
2022-08-03T21:23:48.043Z,5.10
2022-08-03T21:26:24.044Z,7.62
2022-08-03T21:28:53.748Z,7.07
2022-08-03T21:31:25.472Z,5.55
2022-08-03T21:33:56.901Z,7.03
2022-08-03T21:36:26.554Z,7.32
2022-08-03T21:38:56.125Z,5.18
2022-08-03T21:41:30.821Z,8.45
2022-08-03T21:43:58.286Z,4.53
2022-08-03T21:46:26.859Z,5.00
2022-08-03T21:50:04.203Z,6.90
2022-08-03T21:51:49.481Z,6.10
2022-08-03T21:54:17.326Z,4.15
2022-08-03T21:56:47.922Z,7.43
2022-08-03T21:59:19.255Z,5.43
2022-08-03T22:01:49.112Z,8.23
2022-08-03T22:04:53.262Z,5.43
2022-08-03T22:07:08.524Z,7.70
2022-08-03T22:09:36.437Z,6.35
2022-08-03T22:12:04.138Z,5.93
2022-08-03T22:14:33.118Z,5.28
2022-08-03T22:17:03.452Z,4.47
2022-08-03T22:19:33.482Z,4.97
2022-08-03T22:22:00.922Z,4.45
2022-08-03T22:24:29.494Z,4.22
2022-08-03T22:27:15.021Z,4.95
2022-08-03T22:29:42.767Z,5.40
2022-08-03T22:32:09.903Z,3.92
2022-08-03T22:34:37.479Z,6.12
2022-08-03T22:37:05.096Z,5.00
2022-08-03T22:39:32.597Z,6.50
2022-08-03T22:42:00.216Z,4.07
2022-08-03T22:44:28.207Z,4.82
2022-08-03T22:46:55.805Z,5.25
2022-08-03T22:49:23.049Z,6.40
2022-08-03T22:51:52.088Z,4.45
2022-08-03T22:54:19.203Z,5.03
2022-08-03T22:56:47.071Z,4.78
2022-08-03T22:59:40.312Z,5.43
2022-08-03T23:02:19.900Z,4.28
2022-08-03T23:04:53.094Z,5.75
2022-08-03T23:07:22.984Z,5.22
2022-08-03T23:09:51.278Z,4.32
2022-08-03T23:12:20.234Z,4.22
2022-08-03T23:14:54.899Z,5.40
2022-08-03T23:17:23.552Z,6.25
2022-08-03T23:19:52.867Z,7.35
2022-08-03T23:22:30.266Z,4.87
2022-08-03T23:27:27.215Z,5.22
2022-08-03T23:29:54.369Z,4.05
2022-08-03T23:32:21.417Z,4.95
2022-08-03T23:35:08.059Z,5.30
2022-08-03T23:38:19.990Z,5.67
2022-08-03T23:40:25.458Z,7.55
2022-08-03T23:42:52.703Z,3.60
2022-08-03T23:45:20.435Z,5.95
2022-08-03T23:47:48.487Z,4.45
2022-08-03T23:50:15.489Z,5.50
2022-08-03T23:53:07.119Z,4.82
2022-08-03T23:56:01.381Z,6.12
2022-08-03T23:58:31.188Z,5.05
